Time;durP1;ratioP1;P1;durP2;ratioP2;P2;SDS_P1;SDS_P2;PMS_P1;PMS_P2;Temp;Humidity;BMP_temperature;BMP_pressure;BME280_temperature;BME280_humidity;BME280_pressure;Samples;Min_cycle;Max_cycle;Signal;HPM_P1;HPM_P2
2023/08/08 00:01:22;;;;;;;;;;;;;;;13.87;100.00;101221.94;5025001;28;19920;-87
2023/08/08 00:04:11;;;;;;;;;;;;;;;13.83;100.00;101218.59;5028154;28;20023;-88
2023/08/08 00:06:57;;;;;;;;;;;;;;;13.81;100.00;101216.94;5027115;28;20721;-88
2023/08/08 00:09:42;;;;;;;;;;;;;;;13.78;100.00;101223.28;5040684;28;19924;-89
2023/08/08 00:12:31;;;;;;;;;;;;;;;13.75;100.00;101220.81;5050179;28;19970;-87
2023/08/08 00:15:16;;;;;;;;;;;;;;;13.72;100.00;101212.97;5050336;28;20074;-85
2023/08/08 00:18:02;;;;;;;;;;;;;;;13.69;100.00;101218.47;5038902;28;19922;-88
2023/08/08 00:20:48;;;;;;;;;;;;;;;13.66;100.00;101216.81;5042551;28;20007;-87
2023/08/08 00:23:34;;;;;;;;;;;;;;;13.62;100.00;101209.94;5052046;28;19928;-88
2023/08/08 00:26:19;;;;;;;;;;;;;;;13.58;100.00;101213.72;5051093;28;19924;-86
2023/08/08 00:29:06;;;;;;;;;;;;;;;13.54;100.00;101205.03;5046981;28;19936;-87
2023/08/08 00:31:51;;;;;;;;;;;;;;;13.51;100.00;101215.81;5027902;28;19946;-88
2023/08/08 00:34:40;;;;;;;;;;;;;;;13.47;100.00;101208.94;5048280;28;19920;-88
2023/08/08 00:37:29;;;;;;;;;;;;;;;13.43;100.00;101208.22;5046679;28;19924;-85
2023/08/08 00:40:14;;;;;;;;;;;;;;;13.40;100.00;101203.03;5038143;28;20038;-87
2023/08/08 00:43:00;;;;;;;;;;;;;;;13.38;100.00;101202.28;5039381;28;19928;-88
2023/08/08 00:45:46;;;;;;;;;;;;;;;13.37;100.00;101202.34;5052091;28;19924;-88
2023/08/08 00:48:31;;;;;;;;;;;;;;;13.36;100.00;101201.50;5048743;28;20023;-89
2023/08/08 00:51:17;;;;;;;;;;;;;;;13.34;100.00;101200.69;5050840;28;20572;-86
2023/08/08 00:54:03;;;;;;;;;;;;;;;13.33;100.00;101191.00;5046268;28;19963;-87
2023/08/08 00:56:53;;;;;;;;;;;;;;;13.31;100.00;101187.56;5049074;28;20211;-86
2023/08/08 00:59:42;;;;;;;;;;;;;;;13.29;100.00;101186.81;5034472;28;19925;-86
2023/08/08 01:02:28;;;;;;;;;;;;;;;13.28;100.00;101191.25;5053043;28;20183;-84
2023/08/08 01:05:13;;;;;;;;;;;;;;;13.29;100.00;101181.47;5025055;28;19956;-87
2023/08/08 01:08:03;;;;;;;;;;;;;;;13.29;100.00;101186.81;5051772;28;19924;-87
2023/08/08 01:10:49;;;;;;;;;;;;;;;13.30;100.00;101180.53;5034111;28;19920;-88
2023/08/08 01:13:35;;;;;;;;;;;;;;;13.29;100.00;101179.66;5040418;28;20426;-86
2023/08/08 01:16:20;;;;;;;;;;;;;;;13.30;100.00;101176.06;5045457;28;19925;-87
2023/08/08 01:19:06;;;;;;;;;;;;;;;13.30;100.00;101176.06;5049484;28;19927;-89
2023/08/08 01:21:52;;;;;;;;;;;;;;;13.30;100.00;101180.53;5044735;28;19912;-88
2023/08/08 01:24:38;;;;;;;;;;;;;;;13.29;100.00;101173.50;5042652;28;20015;-87
2023/08/08 01:27:24;;;;;;;;;;;;;;;13.27;100.00;101181.56;5039947;28;20187;-85
2023/08/08 01:30:10;;;;;;;;;;;;;;;13.26;100.00;101178.97;5045657;28;20024;-87
2023/08/08 01:32:56;;;;;;;;;;;;;;;13.24;100.00;101172.88;5028338;28;19917;-87
2023/08/08 01:38:54;;;;;;;;;;;;;;;13.21;100.00;101170.38;5031275;28;19928;-86
2023/08/08 01:41:40;;;;;;;;;;;;;;;13.20;100.00;101166.88;5051485;28;19916;-85
2023/08/08 01:44:26;;;;;;;;;;;;;;;13.18;100.00;101177.56;5038982;28;19924;-87
2023/08/08 01:50:04;;;;;;;;;;;;;;;13.17;100.00;101167.88;5730459;22;19939;-87
2023/08/08 01:52:50;;;;;;;;;;;;;;;13.15;100.00;101161.78;5050173;28;20007;-84
2023/08/08 01:55:36;;;;;;;;;;;;;;;13.15;100.00;101156.47;5047047;28;20282;-85
2023/08/08 01:58:22;;;;;;;;;;;;;;;13.15;100.00;101159.13;5060389;28;19924;-87
2023/08/08 02:01:07;;;;;;;;;;;;;;;13.15;100.00;101153.81;5072756;28;19924;-86
2023/08/08 02:03:53;;;;;;;;;;;;;;;13.18;100.00;101158.09;5048142;28;19967;-87
2023/08/08 02:06:40;;;;;;;;;;;;;;;13.20;100.00;101152.69;5059208;28;19934;-86
2023/08/08 02:09:26;;;;;;;;;;;;;;;13.21;100.00;101151.75;5073529;28;19935;-86
2023/08/08 02:12:14;;;;;;;;;;;;;;;13.22;100.00;101150.81;5047836;28;19928;-88
2023/08/08 02:15:00;;;;;;;;;;;;;;;13.22;100.00;101141.03;5048344;28;19985;-87
2023/08/08 02:17:46;;;;;;;;;;;;;;;13.24;100.00;101138.31;5076577;28;20379;-85
2023/08/08 02:20:32;;;;;;;;;;;;;;;13.27;100.00;101139.00;5076263;28;19928;-87
2023/08/08 02:23:19;;;;;;;;;;;;;;;13.27;100.00;101132.81;5082823;28;19928;-85
2023/08/08 02:26:05;;;;;;;;;;;;;;;13.29;100.00;101131.81;5082046;28;19953;-88
2023/08/08 02:28:50;;;;;;;;;;;;;;;13.31;100.00;101124.59;5060587;28;19924;-84
2023/08/08 02:31:36;;;;;;;;;;;;;;;13.33;100.00;101129.84;5075964;28;19926;-87
2023/08/08 02:34:22;;;;;;;;;;;;;;;13.33;100.00;101139.63;5063527;28;19924;-87
2023/08/08 02:37:10;;;;;;;;;;;;;;;13.32;100.00;101133.44;5061655;28;20106;-88
2023/08/08 02:39:58;;;;;;;;;;;;;;;13.33;100.00;101126.34;5062367;28;19931;-86
2023/08/08 02:42:44;;;;;;;;;;;;;;;13.31;100.00;101129.91;5078211;28;19934;-86
2023/08/08 02:45:30;;;;;;;;;;;;;;;13.30;100.00;101119.38;5078239;28;19935;-86
2023/08/08 02:48:15;;;;;;;;;;;;;;;13.26;100.00;101116.03;5062147;28;19927;-87
2023/08/08 02:51:01;;;;;;;;;;;;;;;13.24;100.00;101112.56;5065180;28;19928;-86
2023/08/08 02:53:46;;;;;;;;;;;;;;;13.21;100.00;101111.88;5079219;28;19924;-86
2023/08/08 02:56:32;;;;;;;;;;;;;;;13.16;100.00;101106.81;5080883;28;19927;-87
2023/08/08 02:59:18;;;;;;;;;;;;;;;13.11;100.00;101109.72;5062688;28;21800;-86
2023/08/08 03:02:04;;;;;;;;;;;;;;;13.06;100.00;101106.41;5075863;28;19939;-89
2023/08/08 03:04:49;;;;;;;;;;;;;;;13.02;100.00;101099.56;5062559;28;19924;-87
2023/08/08 03:07:35;;;;;;;;;;;;;;;12.99;100.00;101107.69;5062456;28;19980;-87
2023/08/08 03:10:20;;;;;;;;;;;;;;;12.96;100.00;101106.03;5058618;28;20054;-85
2023/08/08 03:13:08;;;;;;;;;;;;;;;12.93;100.00;101100.88;5052843;28;19920;-83
2023/08/08 03:15:56;;;;;;;;;;;;;;;12.92;100.00;101111.59;5066935;28;19942;-87
2023/08/08 03:18:42;;;;;;;;;;;;;;;12.87;100.00;101103.88;5052668;28;19990;-85
2023/08/08 03:21:30;;;;;;;;;;;;;;;12.83;100.00;101103.16;5044449;28;19935;-88
2023/08/08 03:24:19;;;;;;;;;;;;;;;12.80;100.00;101092.66;5043247;28;20501;-84
2023/08/08 03:27:09;;;;;;;;;;;;;;;12.79;100.00;101100.75;5057447;28;20406;-86
2023/08/08 03:29:57;;;;;;;;;;;;;;;12.79;100.00;101098.94;5043145;28;19916;-85
2023/08/08 03:32:42;;;;;;;;;;;;;;;12.79;100.00;101106.06;5042912;28;20366;-87
2023/08/08 03:35:30;;;;;;;;;;;;;;;12.79;100.00;101098.94;5054797;28;19929;-87
2023/08/08 03:38:18;;;;;;;;;;;;;;;12.78;100.00;101094.56;5056968;28;19924;-88
2023/08/08 03:41:04;;;;;;;;;;;;;;;12.80;100.00;101103.28;5054621;28;20579;-86
2023/08/08 03:43:50;;;;;;;;;;;;;;;12.82;100.00;101090.81;5042366;28;19932;-86
2023/08/08 03:46:35;;;;;;;;;;;;;;;12.83;100.00;101092.53;5056097;28;19983;-85
2023/08/08 03:49:21;;;;;;;;;;;;;;;12.84;100.00;101085.41;5041200;28;19936;-86
2023/08/08 03:52:07;;;;;;;;;;;;;;;12.82;100.00;101088.16;5041763;28;19928;-84
2023/08/08 03:54:52;;;;;;;;;;;;;;;12.82;100.00;101084.63;5058652;28;20324;-86
2023/08/08 03:57:40;;;;;;;;;;;;;;;12.80;100.00;101082.03;5061843;28;19919;-85
2023/08/08 04:00:26;;;;;;;;;;;;;;;12.79;100.00;101085.66;5053368;28;19943;-88
2023/08/08 04:03:15;;;;;;;;;;;;;;;12.77;100.00;101090.19;5051250;28;19935;-85
2023/08/08 04:06:00;;;;;;;;;;;;;;;12.75;100.00;101089.41;5077347;28;19935;-85
2023/08/08 04:08:46;;;;;;;;;;;;;;;12.71;100.00;101083.41;5060935;28;19923;-85
2023/08/08 04:11:32;;;;;;;;;;;;;;;12.69;100.00;101085.25;5062977;28;20276;-85
2023/08/08 04:14:17;;;;;;;;;;;;;;;12.69;100.00;101073.78;5063358;28;19916;-85
2023/08/08 04:17:06;;;;;;;;;;;;;;;12.69;100.00;101079.94;5062584;28;19969;-86
2023/08/08 04:19:52;;;;;;;;;;;;;;;12.70;100.00;101076.34;5069335;28;20046;-85
2023/08/08 04:22:38;;;;;;;;;;;;;;;12.73;100.00;101070.88;5048672;28;21971;-86
2023/08/08 04:25:23;;;;;;;;;;;;;;;12.75;100.00;101076.13;5077935;28;20007;-86
2023/08/08 04:28:10;;;;;;;;;;;;;;;12.76;100.00;101085.81;5065815;28;19947;-88
2023/08/08 04:30:55;;;;;;;;;;;;;;;12.81;100.00;101080.25;5078438;28;19951;-86
2023/08/08 04:33:41;;;;;;;;;;;;;;;12.79;100.00;101087.47;5051439;28;19928;-90
2023/08/08 04:36:27;;;;;;;;;;;;;;;12.72;100.00;101078.91;5061045;28;19977;-88
2023/08/08 04:39:13;;;;;;;;;;;;;;;12.66;100.00;101080.09;5062834;28;20374;-91
2023/08/08 04:42:01;;;;;;;;;;;;;;;12.61;100.00;101077.69;5048244;28;19938;-89
2023/08/08 04:44:49;;;;;;;;;;;;;;;12.61;100.00;101079.47;5049219;28;19924;-87
2023/08/08 04:47:35;;;;;;;;;;;;;;;12.60;100.00;101075.09;5068633;28;19924;-86
2023/08/08 04:50:20;;;;;;;;;;;;;;;12.58;100.00;101071.66;5076468;28;20556;-86
2023/08/08 04:53:06;;;;;;;;;;;;;;;12.56;100.00;101074.41;5065369;28;20629;-87
2023/08/08 04:55:53;;;;;;;;;;;;;;;12.55;100.00;101067.38;5080100;28;19928;-87
2023/08/08 04:58:42;;;;;;;;;;;;;;;12.56;100.00;101066.44;5053091;28;19923;-87
2023/08/08 05:01:27;;;;;;;;;;;;;;;12.57;100.00;101057.53;5049309;28;19935;-87
2023/08/08 05:04:13;;;;;;;;;;;;;;;12.57;100.00;101054.88;5064265;28;20002;-87
2023/08/08 05:06:58;;;;;;;;;;;;;;;12.58;100.00;101050.44;5050469;28;20897;-85
2023/08/08 05:09:56;;;;;;;;;;;;;;;12.62;100.00;101051.97;5060321;28;19920;-86
2023/08/08 05:12:42;;;;;;;;;;;;;;;12.66;100.00;101050.00;5076730;28;19970;-89
2023/08/08 05:15:28;;;;;;;;;;;;;;;12.70;100.00;101054.25;5046539;28;20513;-85
2023/08/08 05:18:13;;;;;;;;;;;;;;;12.73;100.00;101048.75;5075843;28;19962;-84
2023/08/08 05:20:59;;;;;;;;;;;;;;;12.77;100.00;101047.69;5076089;28;20000;-85
2023/08/08 05:23:45;;;;;;;;;;;;;;;12.82;100.00;101056.28;5048240;28;19920;-88
2023/08/08 05:26:31;;;;;;;;;;;;;;;12.87;100.00;101059.53;5046973;28;19960;-87
2023/08/08 05:29:16;;;;;;;;;;;;;;;12.92;100.00;101055.78;5061246;28;20426;-87
2023/08/08 05:32:04;;;;;;;;;;;;;;;12.96;100.00;101044.91;5074024;28;20264;-87
2023/08/08 05:34:50;;;;;;;;;;;;;;;13.03;100.00;101051.63;5047872;28;19920;-87
2023/08/08 05:37:36;;;;;;;;;;;;;;;13.08;100.00;101058.50;5046623;28;19920;-86
2023/08/08 05:40:22;;;;;;;;;;;;;;;13.13;100.00;101052.00;5062404;28;19938;-87
2023/08/08 05:43:08;;;;;;;;;;;;;;;13.20;100.00;101057.88;5084487;28;19928;-85
2023/08/08 05:45:53;;;;;;;;;;;;;;;13.27;100.00;101055.72;5068194;28;19955;-88
2023/08/08 05:48:40;;;;;;;;;;;;;;;13.34;100.00;101065.09;5046712;28;19978;-88
2023/08/08 05:51:30;;;;;;;;;;;;;;;13.42;100.00;101064.69;5050634;28;19924;-88
2023/08/08 05:54:16;;;;;;;;;;;;;;;13.50;100.00;101069.63;5060812;28;20156;-87
2023/08/08 05:57:02;;;;;;;;;;;;;;;13.57;100.00;101066.53;5065601;28;19980;-86
2023/08/08 05:59:48;;;;;;;;;;;;;;;13.66;100.00;101065.19;5059067;28;19927;-88
2023/08/08 06:02:34;;;;;;;;;;;;;;;13.74;100.00;101059.44;5079669;28;19926;-83
2023/08/08 06:05:21;;;;;;;;;;;;;;;13.86;100.00;101060.56;5069840;28;19927;-83
2023/08/08 06:08:11;;;;;;;;;;;;;;;13.99;100.00;101061.59;5062594;28;19927;-85
2023/08/08 06:10:57;;;;;;;;;;;;;;;14.15;100.00;101059.88;5076725;28;20450;-90
2023/08/08 06:13:42;;;;;;;;;;;;;;;14.33;100.00;101068.59;5061926;28;19924;-86
2023/08/08 06:16:28;;;;;;;;;;;;;;;14.51;100.00;101069.31;5065829;28;19967;-85
2023/08/08 06:19:15;;;;;;;;;;;;;;;14.68;100.00;101071.00;5059639;28;20287;-85
2023/08/08 06:22:02;;;;;;;;;;;;;;;14.84;100.00;101067.44;5063979;28;20053;-88
2023/08/08 06:24:48;;;;;;;;;;;;;;;15.00;100.00;101062.91;5050655;28;20386;-85
2023/08/08 06:27:34;;;;;;;;;;;;;;;15.15;100.00;101057.59;5061492;28;19919;-89
2023/08/08 06:30:19;;;;;;;;;;;;;;;15.27;100.00;101054.16;5062196;28;19971;-91
2023/08/08 06:33:05;;;;;;;;;;;;;;;15.42;100.00;101071.00;5064302;28;19932;-88
2023/08/08 06:35:51;;;;;;;;;;;;;;;15.59;100.00;101063.78;5060079;28;19953;-87
2023/08/08 06:38:37;;;;;;;;;;;;;;;15.74;100.00;101065.44;5076828;28;19959;-88
2023/08/08 06:41:26;;;;;;;;;;;;;;;15.84;100.00;101057.72;5074249;28;19959;-91
2023/08/08 06:44:15;;;;;;;;;;;;;;;15.98;100.00;101056.00;5082091;28;19928;-89
2023/08/08 06:47:03;;;;;;;;;;;;;;;16.07;100.00;101058.06;5070059;28;20420;-87
2023/08/08 06:49:49;;;;;;;;;;;;;;;16.05;100.00;101054.63;5060902;28;19946;-85
2023/08/08 06:52:46;;;;;;;;;;;;;;;16.01;100.00;101058.44;5076857;28;20046;-84
2023/08/08 06:55:31;;;;;;;;;;;;;;;15.98;100.00;101056.88;5060688;28;20042;-86
2023/08/08 06:58:17;;;;;;;;;;;;;;;16.00;100.00;101054.06;5077908;28;19928;-88
2023/08/08 07:01:06;;;;;;;;;;;;;;;15.92;100.00;101059.94;5082312;28;20029;-89
2023/08/08 07:03:54;;;;;;;;;;;;;;;15.84;100.00;101047.03;5076673;28;20417;-85
2023/08/08 07:06:40;;;;;;;;;;;;;;;15.78;100.00;101065.25;5065802;28;19967;-87
2023/08/08 07:09:26;;;;;;;;;;;;;;;15.73;100.00;101062.88;5061140;28;19932;-81
2023/08/08 07:12:11;;;;;;;;;;;;;;;15.66;100.00;101043.75;5060300;28;19998;-83
2023/08/08 07:14:57;;;;;;;;;;;;;;;15.62;100.00;101050.22;5063413;28;20558;-82
2023/08/08 07:17:43;;;;;;;;;;;;;;;15.59;100.00;101048.59;5080612;28;20002;-82
2023/08/08 07:20:29;;;;;;;;;;;;;;;15.58;100.00;101051.38;5062999;28;19931;-81
2023/08/08 07:23:14;;;;;;;;;;;;;;;15.55;100.00;101057.78;5062906;28;20073;-89
2023/08/08 07:26:00;;;;;;;;;;;;;;;15.54;100.00;101050.72;5052896;28;19920;-91
2023/08/08 07:28:46;;;;;;;;;;;;;;;15.54;100.00;101052.53;5058076;28;20445;-90
2023/08/08 07:31:34;;;;;;;;;;;;;;;15.52;100.00;101041.94;5053047;28;19928;-93
2023/08/08 07:34:20;;;;;;;;;;;;;;;15.52;100.00;101047.28;5067764;28;19928;-90
2023/08/08 07:37:06;;;;;;;;;;;;;;;15.54;100.00;101047.19;5061226;28;19956;-89
2023/08/08 07:39:52;;;;;;;;;;;;;;;15.52;100.00;101057.94;5088185;28;19928;-89
2023/08/08 07:42:37;;;;;;;;;;;;;;;15.54;100.00;101056.06;5075179;28;20025;-92
2023/08/08 07:45:23;;;;;;;;;;;;;;;15.56;100.00;101055.94;5058948;28;20537;-92
2023/08/08 07:48:08;;;;;;;;;;;;;;;15.54;100.00;101058.72;5077228;28;19979;-90
2023/08/08 07:50:54;;;;;;;;;;;;;;;15.53;100.00;101048.97;5081115;28;20707;-91
2023/08/08 07:53:40;;;;;;;;;;;;;;;15.52;100.00;101052.59;5056452;28;19924;-88
2023/08/08 07:56:55;;;;;;;;;;;;;;;15.50;100.00;101042.97;5066882;28;19979;-89
2023/08/08 07:59:41;;;;;;;;;;;;;;;15.41;100.00;101050.63;5065160;28;19927;-87
2023/08/08 08:02:27;;;;;;;;;;;;;;;15.36;100.00;101044.72;5048679;28;20022;-82
2023/08/08 08:05:13;;;;;;;;;;;;;;;15.51;100.00;101042.91;5075865;28;19932;-84
2023/08/08 08:08:01;;;;;;;;;;;;;;;15.74;100.00;101049.44;5047689;28;19924;-84
2023/08/08 08:10:48;;;;;;;;;;;;;;;15.85;100.00;101053.25;5079042;28;19924;-84
2023/08/08 08:13:33;;;;;;;;;;;;;;;15.87;100.00;101040.66;5077700;28;19963;-86
2023/08/08 08:16:22;;;;;;;;;;;;;;;15.85;100.00;101043.41;5063270;28;20367;-83
2023/08/08 08:19:07;;;;;;;;;;;;;;;15.91;100.00;101043.97;5052312;28;20026;-87
2023/08/08 08:22:13;;;;;;;;;;;;;;;16.09;100.00;101037.47;5076284;28;19916;-85
2023/08/08 08:25:00;;;;;;;;;;;;;;;16.24;100.00;101032.91;5068201;28;19947;-87
2023/08/08 08:27:45;;;;;;;;;;;;;;;16.36;100.00;101031.25;5083514;28;19919;-86
2023/08/08 08:30:31;;;;;;;;;;;;;;;16.38;100.00;101028.44;5050580;28;19943;-84
2023/08/08 08:33:46;;;;;;;;;;;;;;;16.36;100.00;101028.56;5069475;28;19924;-89
2023/08/08 08:37:05;;;;;;;;;;;;;;;16.41;100.00;101037.13;5055007;28;19928;-91
2023/08/08 08:40:06;;;;;;;;;;;;;;;16.46;100.00;101025.28;5080297;28;19927;-86
2023/08/08 08:42:56;;;;;;;;;;;;;;;16.48;100.00;101031.38;5077694;28;19928;-83
2023/08/08 08:45:48;;;;;;;;;;;;;;;16.49;100.00;101030.41;5066885;28;19924;-85
2023/08/08 08:48:45;;;;;;;;;;;;;;;16.55;100.00;101036.19;5051796;28;20000;-86
2023/08/08 08:51:35;;;;;;;;;;;;;;;16.63;100.00;101032.16;5037841;28;19928;-84
2023/08/08 08:54:20;;;;;;;;;;;;;;;16.67;100.00;101036.34;5057507;28;19977;-86
2023/08/08 08:57:08;;;;;;;;;;;;;;;16.64;100.00;101034.72;5054985;28;20344;-84
2023/08/08 08:59:53;;;;;;;;;;;;;;;16.54;100.00;101042.50;5060646;28;20228;-84
2023/08/08 09:02:42;;;;;;;;;;;;;;;16.49;100.00;101041.09;5057111;28;19995;-82
2023/08/08 09:05:28;;;;;;;;;;;;;;;16.45;100.00;101035.09;5044122;28;20011;-83
2023/08/08 09:08:15;;;;;;;;;;;;;;;16.65;100.00;101036.44;5057526;28;20469;-84
2023/08/08 09:11:03;;;;;;;;;;;;;;;16.73;100.00;101035.03;5061384;28;19994;-83
2023/08/08 09:13:48;;;;;;;;;;;;;;;16.87;100.00;101039.44;5077923;28;19930;-83
2023/08/08 09:16:34;;;;;;;;;;;;;;;16.96;100.00;101039.66;5061779;28;20492;-89
2023/08/08 09:19:20;;;;;;;;;;;;;;;17.07;100.00;101049.66;5046159;28;19924;-83
2023/08/08 09:22:06;;;;;;;;;;;;;;;17.07;100.00;101040.75;5058313;28;19932;-85
2023/08/08 09:24:51;;;;;;;;;;;;;;;16.91;100.00;101039.13;5074093;28;19967;-81
2023/08/08 09:27:37;;;;;;;;;;;;;;;16.82;100.00;101045.97;5073588;28;19931;-83
2023/08/08 09:30:23;;;;;;;;;;;;;;;16.88;100.00;101047.34;5044946;28;20371;-81
2023/08/08 09:33:14;;;;;;;;;;;;;;;16.87;100.00;101048.31;5058284;28;19924;-88
2023/08/08 09:36:00;;;;;;;;;;;;;;;16.76;100.00;101053.53;5076236;28;20474;-82
2023/08/08 09:38:47;;;;;;;;;;;;;;;16.68;100.00;101046.06;5075015;28;19920;-88
2023/08/08 09:41:33;;;;;;;;;;;;;;;16.64;100.00;101045.41;5044021;28;19977;-83
2023/08/08 09:44:29;;;;;;;;;;;;;;;16.62;100.00;101049.97;5058077;28;19920;-81
2023/08/08 09:47:15;;;;;;;;;;;;;;;16.50;100.00;101048.16;5064043;28;19923;-81
2023/08/08 09:50:06;;;;;;;;;;;;;;;16.37;100.00;101058.81;5057859;28;20283;-83
2023/08/08 09:52:53;;;;;;;;;;;;;;;16.28;100.00;101054.91;5058146;28;20752;-80
2023/08/08 09:55:38;;;;;;;;;;;;;;;16.47;100.00;101064.38;5055582;28;20011;-81
2023/08/08 09:58:24;;;;;;;;;;;;;;;16.81;100.00;101064.78;5049587;28;19928;-80
2023/08/08 10:01:10;;;;;;;;;;;;;;;16.94;100.00;101060.28;5068122;28;20117;-80
2023/08/08 10:03:58;;;;;;;;;;;;;;;16.90;100.00;101074.84;5075587;28;19923;-82
2023/08/08 10:06:44;;;;;;;;;;;;;;;16.97;100.00;101081.50;5073903;28;19915;-81
2023/08/08 10:09:29;;;;;;;;;;;;;;;17.07;100.00;101081.75;5049757;28;19939;-78
2023/08/08 10:12:15;;;;;;;;;;;;;;;16.97;100.00;101086.84;5053869;28;20137;-80
2023/08/08 10:15:01;;;;;;;;;;;;;;;16.94;100.00;101081.69;5052003;28;19924;-81
2023/08/08 10:17:47;;;;;;;;;;;;;;;17.07;100.00;101072.84;5053978;28;19934;-81
2023/08/08 10:20:36;;;;;;;;;;;;;;;17.19;100.00;101076.47;5065056;28;20011;-80
2023/08/08 10:23:22;;;;;;;;;;;;;;;17.26;100.00;101069.75;5085943;28;19920;-83
2023/08/08 10:26:17;;;;;;;;;;;;;;;17.14;100.00;101066.13;5077220;28;19951;-81
2023/08/08 10:29:03;;;;;;;;;;;;;;;17.09;100.00;101069.13;5075595;28;19926;-81
2023/08/08 10:31:52;;;;;;;;;;;;;;;17.17;100.00;101073.91;5074038;28;20008;-82
2023/08/08 10:34:38;;;;;;;;;;;;;;;17.34;100.00;101074.56;5045563;28;20390;-83
2023/08/08 10:37:24;;;;;;;;;;;;;;;17.59;100.00;101078.19;5077362;28;19920;-80
2023/08/08 10:40:11;;;;;;;;;;;;;;;17.60;100.00;101069.19;5083774;28;19930;-83
2023/08/08 10:42:58;;;;;;;;;;;;;;;17.49;100.00;101076.13;5081112;28;19951;-79
2023/08/08 11:02:29;;;;;;;;;;;;;;;17.29;100.00;101077.56;5617946;23;19926;-82
2023/08/08 11:05:31;;;;;;;;;;;;;;;17.16;98.59;101082.06;4936906;28;19926;-90
2023/08/08 11:08:17;;;;;;;;;;;;;;;17.14;100.00;101083.97;4961026;28;19926;-81
2023/08/08 11:11:03;;;;;;;;;;;;;;;17.15;99.72;101086.53;4957197;28;20879;-82
2023/08/08 11:13:51;;;;;;;;;;;;;;;17.32;100.00;101082.69;4954367;28;19933;-85
2023/08/08 11:16:36;;;;;;;;;;;;;;;17.52;99.50;101083.09;4941595;28;20385;-85
2023/08/08 11:19:25;;;;;;;;;;;;;;;17.64;100.00;101084.03;4938869;28;20389;-88
2023/08/08 11:22:13;;;;;;;;;;;;;;;17.50;97.70;101080.53;4955493;28;20017;-87
2023/08/08 11:25:03;;;;;;;;;;;;;;;17.37;98.07;101085.91;4949964;28;19944;-86
2023/08/08 11:27:52;;;;;;;;;;;;;;;17.42;100.00;101082.06;4955957;28;19962;-86
2023/08/08 11:30:41;;;;;;;;;;;;;;;17.43;100.00;101078.41;4953338;28;21904;-79
2023/08/08 11:33:27;;;;;;;;;;;;;;;17.36;94.57;101084.19;4951894;28;19922;-76
2023/08/08 11:36:22;;;;;;;;;;;;;;;17.35;95.82;101082.50;4957675;28;20824;-82
2023/08/08 11:39:09;;;;;;;;;;;;;;;17.47;99.04;101064.69;4949962;28;20722;-83
2023/08/08 11:41:55;;;;;;;;;;;;;;;17.54;100.00;101073.13;4936771;28;19946;-84
2023/08/08 11:44:40;;;;;;;;;;;;;;;17.65;95.84;101070.53;4953412;28;20887;-85
2023/08/08 11:47:26;;;;;;;;;;;;;;;17.70;98.36;101083.59;4951949;28;19928;-83
2023/08/08 11:50:12;;;;;;;;;;;;;;;17.80;99.40;101070.41;4946047;28;19932;-84
2023/08/08 11:53:01;;;;;;;;;;;;;;;17.89;97.74;101076.91;4939990;28;19985;-92
2023/08/08 11:55:46;;;;;;;;;;;;;;;17.99;97.82;101072.59;4948013;28;19981;-87
2023/08/08 11:58:32;;;;;;;;;;;;;;;18.10;93.80;101079.88;4959176;28;19910;-86
2023/08/08 12:01:26;;;;;;;;;;;;;;;18.05;92.83;101072.16;4988498;28;19918;-87
2023/08/08 12:04:23;;;;;;;;;;;;;;;17.91;90.85;101081.19;4982825;28;19926;-87
2023/08/08 12:07:14;;;;;;;;;;;;;;;17.89;93.89;101091.19;4964677;28;19922;-84
2023/08/08 12:10:00;;;;;;;;;;;;;;;17.95;93.93;101079.16;4980492;28;20017;-90
2023/08/08 12:12:46;;;;;;;;;;;;;;;18.04;92.06;101074.94;4955543;28;19918;-88
2023/08/08 12:15:53;;;;;;;;;;;;;;;17.98;93.52;101072.72;4972582;28;19933;-89
2023/08/08 12:18:40;;;;;;;;;;;;;;;17.91;95.95;101081.19;4955090;28;20534;-84
2023/08/08 12:21:36;;;;;;;;;;;;;;;17.96;94.75;101078.16;4963448;28;19902;-84
2023/08/08 12:24:22;;;;;;;;;;;;;;;17.87;90.98;101084.22;4961499;28;19975;-86
2023/08/08 12:27:08;;;;;;;;;;;;;;;17.89;94.58;101095.66;4968259;28;19922;-88
2023/08/08 12:30:00;;;;;;;;;;;;;;;17.98;95.50;101084.25;4949424;28;20038;-90
2023/08/08 12:32:48;;;;;;;;;;;;;;;18.19;96.03;101087.22;4947693;28;19923;-89
2023/08/08 12:35:50;;;;;;;;;;;;;;;18.32;96.35;101087.16;4942673;28;19976;-88
2023/08/08 12:38:35;;;;;;;;;;;;;;;18.18;90.75;101101.59;4953099;28;19946;-83
2023/08/08 12:41:41;;;;;;;;;;;;;;;18.15;93.08;101079.53;4943615;28;19929;-88
2023/08/08 12:44:27;;;;;;;;;;;;;;;18.04;94.54;101099.88;4958876;28;19926;-85
2023/08/08 12:47:36;;;;;;;;;;;;;;;17.95;92.40;101099.69;4932977;28;19926;-88
2023/08/08 12:50:22;;;;;;;;;;;;;;;17.91;96.07;101102.63;4950283;28;19985;-85
2023/08/08 12:53:07;;;;;;;;;;;;;;;17.92;95.78;101096.28;4957177;28;20075;-84
2023/08/08 12:55:53;;;;;;;;;;;;;;;18.00;99.24;101090.38;4959262;28;20439;-84
2023/08/08 12:58:40;;;;;;;;;;;;;;;18.14;95.84;101088.53;4963767;28;19926;-90
2023/08/08 13:01:35;;;;;;;;;;;;;;;18.19;95.63;101091.72;4957617;28;19922;-86
2023/08/08 13:04:25;;;;;;;;;;;;;;;17.94;92.34;101093.50;4950785;28;19938;-89
2023/08/08 13:07:10;;;;;;;;;;;;;;;17.81;93.90;101100.72;4963460;28;19930;-81
2023/08/08 13:09:56;;;;;;;;;;;;;;;17.84;98.40;101090.66;4958509;28;20408;-85
2023/08/08 13:12:42;;;;;;;;;;;;;;;17.92;99.63;101090.06;4940187;28;19918;-84
2023/08/08 13:15:27;;;;;;;;;;;;;;;17.88;96.41;101078.72;4952084;28;20444;-82
2023/08/08 13:18:13;;;;;;;;;;;;;;;17.69;96.95;101089.09;4956212;28;20472;-84
2023/08/08 13:20:59;;;;;;;;;;;;;;;17.59;97.64;101094.25;4934617;28;19922;-79
2023/08/08 13:23:45;;;;;;;;;;;;;;;17.53;95.06;101100.88;4953009;28;20001;-76
2023/08/08 13:26:31;;;;;;;;;;;;;;;17.58;98.83;101105.88;4959412;28;20392;-84
2023/08/08 13:29:24;;;;;;;;;;;;;;;17.74;98.92;101098.47;4953723;28;20027;-83
2023/08/08 13:32:10;;;;;;;;;;;;;;;17.87;98.61;101108.31;4952422;28;19985;-81
2023/08/08 13:34:55;;;;;;;;;;;;;;;17.94;98.02;101120.28;4958062;28;19961;-80
2023/08/08 13:37:45;;;;;;;;;;;;;;;17.83;96.05;101118.41;4957951;28;19922;-81
2023/08/08 13:40:31;;;;;;;;;;;;;;;17.65;95.90;101121.41;4954374;28;19926;-80
2023/08/08 13:43:17;;;;;;;;;;;;;;;17.71;96.80;101122.78;4957627;28;19953;-80
2023/08/08 13:46:09;;;;;;;;;;;;;;;17.84;99.89;101119.22;4951153;28;19972;-81
2023/08/08 13:48:58;;;;;;;;;;;;;;;17.88;96.85;101118.88;4950355;28;19933;-85
2023/08/08 13:51:43;;;;;;;;;;;;;;;17.74;95.82;101129.75;4953283;28;19926;-89
2023/08/08 13:54:29;;;;;;;;;;;;;;;17.55;94.21;101139.09;4929310;28;19969;-86
2023/08/08 13:57:21;;;;;;;;;;;;;;;17.34;96.58;101123.56;4948739;28;20480;-90
2023/08/08 14:00:10;;;;;;;;;;;;;;;17.24;95.72;101139.44;4947003;28;19985;-87
2023/08/08 14:03:04;;;;;;;;;;;;;;;17.28;96.71;101144.56;4951672;28;20021;-80
2023/08/08 14:05:52;;;;;;;;;;;;;;;17.29;98.04;101146.25;4936268;28;19922;-76
2023/08/08 14:08:37;;;;;;;;;;;;;;;17.36;96.73;101139.50;4954246;28;19930;-88
2023/08/08 14:11:39;;;;;;;;;;;;;;;;;;;;;
2023/08/08 14:14:25;;;;;;;;;;;;;;;17.36;96.11;101144.88;4950205;28;19930;-85
2023/08/08 14:17:11;;;;;;;;;;;;;;;17.35;95.02;101148.50;4936925;28;20030;-84
2023/08/08 14:19:56;;;;;;;;;;;;;;;17.46;95.05;101148.63;4954599;28;20507;-86
2023/08/08 14:22:44;;;;;;;;;;;;;;;17.54;89.68;101156.09;4931761;28;19922;-86
2023/08/08 14:25:30;;;;;;;;;;;;;;;17.58;93.81;101156.75;4949776;28;19930;-84
2023/08/08 14:28:15;;;;;;;;;;;;;;;17.58;93.52;101154.06;4955668;28;19922;-81
2023/08/08 14:31:02;;;;;;;;;;;;;;;17.61;92.48;101162.72;4955314;28;20303;-86
2023/08/08 14:33:47;;;;;;;;;;;;;;;17.67;91.24;101153.44;4948091;28;20084;-86
2023/08/08 14:36:33;;;;;;;;;;;;;;;17.72;90.68;101153.97;4953127;28;19948;-90